Time,TemperatureF,DewpointF,PressureIn,WindDirection,WindDirectionDegrees,WindSpeedMPH,WindSpeedGustMPH,Humidity,HourlyPrecipIn,Conditions,Clouds,dailyrainin,SoftwareType,DateUTC
2013-09-16 00:00:00,55.1,53.7,29.99,NNW,329,0.0,3.0,95,0.01,,---,0.00,VWS V14.00,2013-09-16 04:00:00,
2013-09-16 00:01:00,55.1,53.7,29.99,NNW,329,0.0,3.0,95,0.01,,---,0.02,VWS V14.00,2013-09-16 04:01:00,
2013-09-16 00:06:00,55.2,53.8,30.00,NNW,329,0.0,1.0,95,0.00,,---,0.00,VWS V14.00,2013-09-16 04:06:00,
2013-09-16 00:11:00,55.2,53.8,30.00,NNW,329,0.0,1.0,95,0.00,,---,0.00,VWS V14.00,2013-09-16 04:11:00,
2013-09-16 00:15:00,55.3,53.9,30.00,NNW,344,0.0,3.0,95,0.00,,---,0.00,VWS V14.00,2013-09-16 04:15:00,
2013-09-16 00:16:00,55.3,53.9,30.00,NNW,345,0.0,3.0,95,0.00,,---,0.00,VWS V14.00,2013-09-16 04:16:00,
2013-09-16 00:21:00,55.4,54.0,30.00,NE,40,0.0,4.0,95,0.00,,---,0.00,VWS V14.00,2013-09-16 04:21:00,
2013-09-16 00:26:00,55.5,54.1,29.99,ENE,78,2.0,5.0,95,0.00,,---,0.00,VWS V14.00,2013-09-16 04:26:00,
2013-09-16 00:30:00,55.6,54.2,29.99,NE,40,0.0,5.0,95,0.00,,---,0.00,VWS V14.00,2013-09-16 04:30:00,
2013-09-16 00:31:00,55.6,54.2,29.99,NE,40,0.0,5.0,95,0.00,,---,0.00,VWS V14.00,2013-09-16 04:31:00,
2013-09-16 00:36:00,55.6,54.2,29.99,NE,51,0.0,1.0,95,0.00,,---,0.00,VWS V14.00,2013-09-16 04:36:00,
2013-09-16 00:41:00,55.6,54.2,29.99,ENE,63,0.0,2.0,95,0.00,,---,0.00,VWS V14.00,2013-09-16 04:41:00,
2013-09-16 00:45:00,55.7,54.3,29.99,NE,52,0.0,3.0,95,0.00,,---,0.00,VWS V14.00,2013-09-16 04:45:00,
2013-09-16 00:46:00,55.7,54.3,29.99,NE,52,0.0,3.0,95,0.00,,---,0.00,VWS V14.00,2013-09-16 04:46:00,
2013-09-16 00:51:00,55.7,54.3,29.99,NE,53,0.0,0.0,95,0.00,,---,0.00,VWS V14.00,2013-09-16 04:51:00,
2013-09-16 00:56:00,55.7,54.3,29.99,ENE,60,0.0,4.0,95,0.01,,---,0.01,VWS V14.00,2013-09-16 04:56:00,
2013-09-16 01:00:00,55.7,54.3,29.99,ENE,60,0.0,4.0,95,0.01,,---,0.01,VWS V14.00,2013-09-16 05:00:00,
2013-09-16 01:01:00,55.7,54.3,29.99,ENE,60,0.0,4.0,95,0.01,,---,0.01,VWS V14.00,2013-09-16 05:01:00,
2013-09-16 01:06:00,55.7,54.3,29.99,ENE,60,0.0,1.0,95,0.01,,---,0.01,VWS V14.00,2013-09-16 05:06:00,
2013-09-16 01:11:00,55.7,54.3,29.99,ENE,69,0.0,3.0,95,0.01,,---,0.01,VWS V14.00,2013-09-16 05:11:00,
2013-09-16 01:15:00,55.8,54.4,29.99,NE,55,0.0,3.0,95,0.01,,---,0.01,VWS V14.00,2013-09-16 05:15:00,
2013-09-16 01:16:00,55.7,54.3,29.99,NE,55,0.0,3.0,95,0.01,,---,0.01,VWS V14.00,2013-09-16 05:16:00,
2013-09-16 01:21:00,55.8,54.4,29.99,East,83,0.0,1.0,95,0.01,,---,0.01,VWS V14.00,2013-09-16 05:21:00,
2013-09-16 01:26:00,55.7,54.3,29.99,East,83,0.0,1.0,95,0.01,,---,0.01,VWS V14.00,2013-09-16 05:26:00,
2013-09-16 01:30:00,55.7,54.3,29.99,NE,53,0.0,1.0,95,0.01,,---,0.01,VWS V14.00,2013-09-16 05:30:00,
2013-09-16 01:31:00,55.7,54.3,29.99,NE,53,0.0,1.0,95,0.01,,---,0.01,VWS V14.00,2013-09-16 05:31:00,
2013-09-16 01:36:00,55.7,54.3,30.00,NE,53,0.0,0.0,95,0.01,,---,0.01,VWS V14.00,2013-09-16 05:36:00,
2013-09-16 01:41:00,55.7,54.3,30.00,NE,53,0.0,0.0,95,0.01,,---,0.01,VWS V14.00,2013-09-16 05:41:00,
2013-09-16 01:45:00,55.7,54.3,30.00,NE,53,0.0,0.0,95,0.01,,---,0.01,VWS V14.00,2013-09-16 05:45:00,
2013-09-16 01:46:00,55.7,54.3,30.00,NE,53,0.0,0.0,95,0.01,,---,0.01,VWS V14.00,2013-09-16 05:46:00,
2013-09-16 01:51:00,55.6,54.2,30.00,NE,53,0.0,0.0,95,0.01,,---,0.01,VWS V14.00,2013-09-16 05:51:00,
2013-09-16 01:56:00,55.6,54.2,30.00,NE,53,0.0,0.0,95,0.01,,---,0.01,VWS V14.00,2013-09-16 05:56:00,
2013-09-16 02:00:00,55.6,54.2,30.00,NE,53,0.0,0.0,95,0.01,,---,0.01,VWS V14.00,2013-09-16 06:00:00,
2013-09-16 02:01:00,55.6,54.2,30.00,NE,53,0.0,0.0,95,0.01,,---,0.01,VWS V14.00,2013-09-16 06:01:00,
2013-09-16 02:06:00,55.6,54.2,30.00,NE,53,0.0,0.0,95,0.00,,---,0.01,VWS V14.00,2013-09-16 06:06:00,
2013-09-16 02:11:00,55.5,54.1,30.00,NE,53,0.0,0.0,95,0.00,,---,0.01,VWS V14.00,2013-09-16 06:11:00,
2013-09-16 02:15:00,55.5,54.1,29.99,NE,53,0.0,0.0,95,0.00,,---,0.01,VWS V14.00,2013-09-16 06:15:00,
2013-09-16 02:16:00,55.5,54.1,29.99,NE,53,0.0,0.0,95,0.00,,---,0.01,VWS V14.00,2013-09-16 06:16:00,
2013-09-16 02:21:00,55.5,54.1,29.99,NE,53,0.0,0.0,95,0.00,,---,0.01,VWS V14.00,2013-09-16 06:21:00,
2013-09-16 02:26:00,55.5,54.4,29.99,NE,53,0.0,0.0,96,0.00,,---,0.01,VWS V14.00,2013-09-16 06:26:00,
2013-09-16 02:30:00,55.5,54.4,29.99,NE,53,0.0,0.0,96,0.00,,---,0.01,VWS V14.00,2013-09-16 06:30:00,
2013-09-16 02:31:00,55.5,54.4,29.99,NE,53,0.0,0.0,96,0.00,,---,0.01,VWS V14.00,2013-09-16 06:31:00,
2013-09-16 02:36:00,55.4,54.3,30.00,NE,53,0.0,0.0,96,0.00,,---,0.01,VWS V14.00,2013-09-16 06:36:00,
2013-09-16 02:41:00,55.4,54.3,30.00,NE,53,0.0,1.0,96,0.00,,---,0.01,VWS V14.00,2013-09-16 06:41:00,
2013-09-16 02:45:00,55.4,54.3,30.00,NE,53,0.0,1.0,96,0.00,,---,0.01,VWS V14.00,2013-09-16 06:45:00,
2013-09-16 02:46:00,55.4,54.3,29.99,NE,53,0.0,1.0,96,0.00,,---,0.01,VWS V14.00,2013-09-16 06:46:00,
2013-09-16 02:51:00,55.4,54.3,29.99,NE,53,0.0,0.0,96,0.00,,---,0.01,VWS V14.00,2013-09-16 06:51:00,
2013-09-16 02:56:00,55.3,54.2,29.99,NE,53,0.0,0.0,96,0.00,,---,0.01,VWS V14.00,2013-09-16 06:56:00,
2013-09-16 03:00:00,55.3,54.2,29.99,NE,53,0.0,0.0,96,0.00,,---,0.01,VWS V14.00,2013-09-16 07:00:00,
2013-09-16 03:01:00,55.3,54.2,29.99,NE,53,0.0,0.0,96,0.00,,---,0.01,VWS V14.00,2013-09-16 07:01:00,
2013-09-16 03:06:00,55.3,54.2,29.99,NE,53,0.0,0.0,96,0.00,,---,0.01,VWS V14.00,2013-09-16 07:06:00,
2013-09-16 03:11:00,55.3,54.2,29.99,NE,53,0.0,0.0,96,0.00,,---,0.01,VWS V14.00,2013-09-16 07:11:00,
2013-09-16 03:15:00,55.3,54.2,29.99,North,360,3.0,4.0,96,0.00,,---,0.01,VWS V14.00,2013-09-16 07:15:00,
2013-09-16 03:16:00,55.3,54.2,29.99,NE,53,0.0,1.0,96,0.00,,---,0.01,VWS V14.00,2013-09-16 07:16:00,
2013-09-16 03:21:00,55.3,54.2,30.00,NNW,338,3.0,5.0,96,0.00,,---,0.01,VWS V14.00,2013-09-16 07:21:00,
2013-09-16 03:26:00,55.0,53.6,30.00,NNW,340,5.0,10.0,95,0.00,,---,0.01,VWS V14.00,2013-09-16 07:26:00,
2013-09-16 03:30:00,55.5,54.4,29.99,NE,53,0.0,0.0,96,0.00,,---,0.01,VWS V14.00,2013-09-16 07:30:00,
2013-09-16 03:31:00,54.7,53.3,30.00,NW,312,6.0,10.0,95,0.00,,---,0.01,VWS V14.00,2013-09-16 07:31:00,
2013-09-16 03:36:00,54.4,53.0,30.00,North,5,2.0,8.0,95,0.00,,---,0.01,VWS V14.00,2013-09-16 07:36:00,
2013-09-16 03:41:00,54.2,52.8,29.99,East,85,0.0,8.0,95,0.00,,---,0.01,VWS V14.00,2013-09-16 07:41:00,
2013-09-16 03:45:00,54.1,52.7,29.99,ESE,122,0.0,8.0,95,0.00,,---,0.01,VWS V14.00,2013-09-16 07:45:00,
2013-09-16 03:46:00,54.1,52.7,29.99,East,85,1.0,8.0,95,0.00,,---,0.01,VWS V14.00,2013-09-16 07:46:00,
2013-09-16 03:51:00,54.1,52.7,29.99,ESE,122,0.0,2.0,95,0.00,,---,0.01,VWS V14.00,2013-09-16 07:51:00,
2013-09-16 03:56:00,54.1,52.7,29.99,ESE,122,0.0,2.0,95,0.00,,---,0.01,VWS V14.00,2013-09-16 07:56:00,
2013-09-16 04:00:00,54.0,52.6,29.99,ESE,122,0.0,2.0,95,0.00,,---,0.01,VWS V14.00,2013-09-16 08:00:00,
2013-09-16 04:01:00,54.1,52.7,29.99,ESE,122,0.0,2.0,95,0.00,,---,0.01,VWS V14.00,2013-09-16 08:01:00,
2013-09-16 04:06:00,54.0,52.6,29.99,ESE,122,0.0,0.0,95,0.00,,---,0.01,VWS V14.00,2013-09-16 08:06:00,
2013-09-16 04:11:00,54.0,52.6,29.99,ESE,122,0.0,0.0,95,0.00,,---,0.01,VWS V14.00,2013-09-16 08:11:00,
2013-09-16 04:15:00,53.9,52.5,29.99,ESE,122,0.0,0.0,95,0.00,,---,0.01,VWS V14.00,2013-09-16 08:15:00,
2013-09-16 04:16:00,53.9,52.5,29.99,ESE,122,0.0,0.0,95,0.00,,---,0.01,VWS V14.00,2013-09-16 08:16:00,
2013-09-16 04:21:00,53.8,52.4,29.99,ESE,122,0.0,0.0,95,0.00,,---,0.01,VWS V14.00,2013-09-16 08:21:00,
2013-09-16 04:26:00,53.6,52.2,29.99,ESE,122,0.0,0.0,95,0.00,,---,0.01,VWS V14.00,2013-09-16 08:26:00,
2013-09-16 04:30:00,53.4,52.0,29.99,ESE,122,0.0,0.0,95,0.00,,---,0.01,VWS V14.00,2013-09-16 08:30:00,
2013-09-16 04:31:00,53.5,52.1,29.99,ESE,122,0.0,0.0,95,0.00,,---,0.01,VWS V14.00,2013-09-16 08:31:00,
2013-09-16 04:36:00,53.3,51.9,29.99,ESE,122,0.0,0.0,95,0.00,,---,0.01,VWS V14.00,2013-09-16 08:36:00,
2013-09-16 04:41:00,53.3,51.9,30.00,ESE,122,0.0,0.0,95,0.00,,---,0.01,VWS V14.00,2013-09-16 08:41:00,
2013-09-16 04:45:00,53.1,51.7,30.00,ESE,122,0.0,0.0,95,0.00,,---,0.01,VWS V14.00,2013-09-16 08:45:00,
2013-09-16 04:46:00,53.2,51.8,30.00,ESE,122,0.0,0.0,95,0.00,,---,0.01,VWS V14.00,2013-09-16 08:46:00,
2013-09-16 04:51:00,53.1,51.7,30.00,ESE,122,0.0,0.0,95,0.00,,---,0.01,VWS V14.00,2013-09-16 08:51:00,
2013-09-16 04:56:00,53.0,51.6,30.00,ESE,122,0.0,0.0,95,0.00,,---,0.01,VWS V14.00,2013-09-16 08:56:00,
2013-09-16 05:00:00,52.8,51.4,30.00,ESE,122,0.0,0.0,95,0.00,,---,0.01,VWS V14.00,2013-09-16 09:00:00,
2013-09-16 05:01:00,52.9,51.5,30.00,ESE,122,0.0,0.0,95,0.00,,---,0.01,VWS V14.00,2013-09-16 09:01:00,
2013-09-16 05:06:00,52.8,51.4,30.00,ESE,122,0.0,0.0,95,0.00,,---,0.01,VWS V14.00,2013-09-16 09:06:00,
2013-09-16 05:11:00,52.5,51.1,30.00,ESE,122,0.0,0.0,95,0.00,,---,0.01,VWS V14.00,2013-09-16 09:11:00,
2013-09-16 05:15:00,52.2,50.8,30.00,ESE,122,0.0,0.0,95,0.00,,---,0.01,VWS V14.00,2013-09-16 09:15:00,
2013-09-16 05:16:00,52.3,50.9,30.00,ESE,122,0.0,0.0,95,0.00,,---,0.01,VWS V14.00,2013-09-16 09:16:00,
2013-09-16 05:21:00,52.1,50.7,30.00,ESE,122,0.0,0.0,95,0.00,,---,0.01,VWS V14.00,2013-09-16 09:21:00,
2013-09-16 05:26:00,51.9,50.5,30.00,ESE,122,0.0,0.0,95,0.00,,---,0.01,VWS V14.00,2013-09-16 09:26:00,
2013-09-16 05:30:00,53.4,52.0,29.99,ESE,122,0.0,0.0,95,0.00,,---,0.01,VWS V14.00,2013-09-16 09:30:00,
2013-09-16 05:31:00,51.9,50.5,30.00,ESE,122,0.0,0.0,95,0.00,,---,0.01,VWS V14.00,2013-09-16 09:31:00,
2013-09-16 05:36:00,51.9,50.5,30.01,ESE,122,0.0,0.0,95,0.00,,---,0.01,VWS V14.00,2013-09-16 09:36:00,
2013-09-16 05:41:00,51.8,50.4,30.01,ESE,122,0.0,0.0,95,0.00,,---,0.01,VWS V14.00,2013-09-16 09:41:00,
2013-09-16 05:45:00,53.1,51.7,30.00,ESE,122,0.0,0.0,95,0.00,,---,0.01,VWS V14.00,2013-09-16 09:45:00,
2013-09-16 05:46:00,51.9,50.8,30.01,ESE,122,0.0,0.0,96,0.00,,---,0.01,VWS V14.00,2013-09-16 09:46:00,
2013-09-16 05:51:00,52.0,50.9,30.01,ESE,122,0.0,0.0,96,0.00,,---,0.01,VWS V14.00,2013-09-16 09:51:00,
2013-09-16 05:56:00,52.1,51.0,30.01,ESE,122,0.0,0.0,96,0.00,,---,0.01,VWS V14.00,2013-09-16 09:56:00,
2013-09-16 06:00:00,52.8,51.4,30.00,ESE,122,0.0,0.0,95,0.00,,---,0.01,VWS V14.00,2013-09-16 10:00:00,
2013-09-16 06:01:00,52.2,51.1,30.02,ESE,122,0.0,0.0,96,0.00,,---,0.01,VWS V14.00,2013-09-16 10:01:00,
2013-09-16 06:06:00,52.3,51.2,30.02,ESE,122,0.0,0.0,96,0.00,,---,0.01,VWS V14.00,2013-09-16 10:06:00,
2013-09-16 06:11:00,52.3,51.2,30.02,ESE,122,0.0,0.0,96,0.00,,---,0.01,VWS V14.00,2013-09-16 10:11:00,
2013-09-16 06:15:00,52.4,51.3,30.02,ESE,122,0.0,0.0,96,0.00,,---,0.01,VWS V14.00,2013-09-16 10:15:00,
2013-09-16 06:16:00,52.4,51.3,30.01,ESE,122,0.0,0.0,96,0.00,,---,0.01,VWS V14.00,2013-09-16 10:16:00,
2013-09-16 06:21:00,52.5,51.4,30.02,ESE,122,0.0,0.0,96,0.00,,---,0.01,VWS V14.00,2013-09-16 10:21:00,
2013-09-16 06:26:00,52.5,51.4,30.02,ESE,122,0.0,0.0,96,0.00,,---,0.01,VWS V14.00,2013-09-16 10:26:00,
2013-09-16 06:30:00,51.9,50.5,30.00,ESE,122,0.0,0.0,95,0.00,,---,0.01,VWS V14.00,2013-09-16 10:30:00,
2013-09-16 06:31:00,52.5,51.4,30.02,ESE,122,0.0,0.0,96,0.00,,---,0.01,VWS V14.00,2013-09-16 10:31:00,
2013-09-16 06:36:00,52.6,51.5,30.02,ESE,122,0.0,0.0,96,0.00,,---,0.01,VWS V14.00,2013-09-16 10:36:00,
2013-09-16 06:41:00,52.6,51.5,30.02,ESE,122,0.0,0.0,96,0.00,,---,0.01,VWS V14.00,2013-09-16 10:41:00,
2013-09-16 06:45:00,52.7,51.6,30.03,ESE,122,0.0,0.0,96,0.00,,---,0.01,VWS V14.00,2013-09-16 10:45:00,
2013-09-16 06:46:00,52.7,51.6,30.03,ESE,122,0.0,0.0,96,0.00,,---,0.01,VWS V14.00,2013-09-16 10:46:00,
2013-09-16 06:51:00,52.7,51.6,30.03,ESE,122,0.0,0.0,96,0.00,,---,0.01,VWS V14.00,2013-09-16 10:51:00,
2013-09-16 06:55:00,52.8,51.7,30.03,ESE,122,0.0,0.0,96,0.00,,---,0.01,VWS V14.00,2013-09-16 10:55:00,
2013-09-16 07:00:00,52.8,51.7,30.03,ESE,122,0.0,0.0,96,0.00,,---,0.01,VWS V14.00,2013-09-16 11:00:00,
2013-09-16 07:05:00,52.8,51.7,30.03,ESE,122,0.0,0.0,96,0.00,,---,0.01,VWS V14.00,2013-09-16 11:05:00,
2013-09-16 07:10:00,52.7,51.6,30.04,ESE,122,0.0,0.0,96,0.00,,---,0.01,VWS V14.00,2013-09-16 11:10:00,
2013-09-16 07:15:00,52.5,51.4,30.04,ESE,122,0.0,0.0,96,0.00,,---,0.01,VWS V14.00,2013-09-16 11:15:00,
2013-09-16 07:20:00,52.3,51.2,30.04,ESE,122,0.0,0.0,96,0.00,,---,0.01,VWS V14.00,2013-09-16 11:20:00,
2013-09-16 07:25:00,52.1,51.0,30.04,ESE,122,0.0,0.0,96,0.00,,---,0.01,VWS V14.00,2013-09-16 11:25:00,
2013-09-16 07:30:00,51.9,50.8,30.04,ESE,122,0.0,0.0,96,0.00,,---,0.01,VWS V14.00,2013-09-16 11:30:00,
2013-09-16 07:35:00,51.8,50.7,30.04,ESE,122,0.0,0.0,96,0.00,,---,0.01,VWS V14.00,2013-09-16 11:35:00,
2013-09-16 07:40:00,51.7,50.6,30.04,ESE,122,0.0,0.0,96,0.00,,---,0.01,VWS V14.00,2013-09-16 11:40:00,
2013-09-16 07:45:00,51.6,50.5,30.04,ESE,122,0.0,0.0,96,0.00,,---,0.01,VWS V14.00,2013-09-16 11:45:00,
2013-09-16 07:50:00,51.6,50.5,30.04,ESE,122,0.0,0.0,96,0.00,,---,0.01,VWS V14.00,2013-09-16 11:50:00,
2013-09-16 07:55:00,51.9,50.8,30.04,ESE,122,0.0,0.0,96,0.00,,---,0.01,VWS V14.00,2013-09-16 11:55:00,
2013-09-16 08:00:00,52.6,51.8,30.04,ESE,122,0.0,0.0,97,0.00,,---,0.01,VWS V14.00,2013-09-16 12:00:00,
2013-09-16 08:05:00,53.3,52.5,30.04,ESE,122,0.0,0.0,97,0.00,,---,0.01,VWS V14.00,2013-09-16 12:05:00,
2013-09-16 08:10:00,53.9,53.1,30.05,ESE,122,0.0,0.0,97,0.00,,---,0.01,VWS V14.00,2013-09-16 12:10:00,
2013-09-16 08:15:00,54.3,53.5,30.05,ESE,122,0.0,0.0,97,0.00,,---,0.01,VWS V14.00,2013-09-16 12:15:00,
2013-09-16 08:20:00,54.5,53.7,30.05,ESE,121,0.0,0.0,97,0.00,,---,0.01,VWS V14.00,2013-09-16 12:20:00,
2013-09-16 08:25:00,54.9,54.1,30.05,SSE,167,0.0,1.0,97,0.00,,---,0.01,VWS V14.00,2013-09-16 12:25:00,
2013-09-16 08:30:00,55.1,54.3,30.05,SSE,167,0.0,1.0,97,0.00,,---,0.01,VWS V14.00,2013-09-16 12:30:00,
2013-09-16 08:35:00,55.4,54.3,30.05,South,184,0.0,1.0,96,0.00,,---,0.01,VWS V14.00,2013-09-16 12:35:00,
2013-09-16 08:40:00,55.8,54.7,30.05,SW,236,0.0,1.0,96,0.00,,---,0.01,VWS V14.00,2013-09-16 12:40:00,
2013-09-16 08:45:00,56.1,55.0,30.05,NNW,332,0.0,1.0,96,0.00,,---,0.01,VWS V14.00,2013-09-16 12:45:00,
2013-09-16 08:50:00,56.6,55.5,30.05,NNW,335,0.0,1.0,96,0.00,,---,0.01,VWS V14.00,2013-09-16 12:50:00,
2013-09-16 08:55:00,56.8,55.4,30.05,West,272,0.0,2.0,95,0.00,,---,0.01,VWS V14.00,2013-09-16 12:55:00,
2013-09-16 09:00:00,57.1,55.4,30.06,WNW,293,3.0,6.0,94,0.00,,---,0.01,VWS V14.00,2013-09-16 13:00:00,
2013-09-16 09:05:00,57.3,55.3,30.06,North,350,3.0,6.0,93,0.00,,---,0.01,VWS V14.00,2013-09-16 13:05:00,
2013-09-16 09:10:00,57.7,55.4,30.06,NNW,340,0.0,6.0,92,0.00,,---,0.01,VWS V14.00,2013-09-16 13:10:00,
2013-09-16 09:15:00,58.1,55.8,30.06,NW,308,0.0,6.0,92,0.00,,---,0.01,VWS V14.00,2013-09-16 13:15:00,
2013-09-16 09:20:00,58.5,55.6,30.06,West,280,2.0,4.0,90,0.00,,---,0.01,VWS V14.00,2013-09-16 13:20:00,
2013-09-16 09:25:00,58.7,55.8,30.06,NNW,345,3.0,5.0,90,0.00,,---,0.01,VWS V14.00,2013-09-16 13:25:00,
2013-09-16 09:30:00,59.1,56.2,30.06,NW,319,1.0,5.0,90,0.00,,---,0.01,VWS V14.00,2013-09-16 13:30:00,
2013-09-16 09:35:00,59.4,55.8,30.06,NNW,342,0.0,6.0,88,0.00,,---,0.01,VWS V14.00,2013-09-16 13:35:00,
2013-09-16 09:40:00,59.3,55.4,30.06,NW,320,4.0,9.0,87,0.00,,---,0.01,VWS V14.00,2013-09-16 13:40:00,
2013-09-16 09:45:00,59.6,55.7,30.06,NNW,347,0.0,9.0,87,0.00,,---,0.01,VWS V14.00,2013-09-16 13:45:00,
2013-09-16 09:50:00,59.9,56.0,30.07,NW,323,0.0,5.0,87,0.00,,---,0.01,VWS V14.00,2013-09-16 13:50:00,
2013-09-16 09:55:00,60.3,56.1,30.07,North,10,3.0,5.0,86,0.00,,---,0.01,VWS V14.00,2013-09-16 13:55:00,
2013-09-16 10:00:00,60.6,55.8,30.07,NNW,333,3.0,7.0,84,0.00,,---,0.01,VWS V14.00,2013-09-16 14:00:00,
2013-09-16 10:05:00,60.1,54.6,30.07,NW,317,5.0,7.0,82,0.00,,---,0.01,VWS V14.00,2013-09-16 14:05:00,
2013-09-16 10:10:00,60.1,54.9,30.07,NW,325,2.0,8.0,83,0.00,,---,0.01,VWS V14.00,2013-09-16 14:10:00,
2013-09-16 10:15:00,60.7,55.8,30.07,North,355,5.0,8.0,84,0.00,,---,0.01,VWS V14.00,2013-09-16 14:15:00,
2013-09-16 10:20:00,61.0,55.8,30.07,NNW,334,0.0,7.0,83,0.00,,---,0.01,VWS V14.00,2013-09-16 14:20:00,
2013-09-16 10:25:00,60.9,55.4,30.07,North,355,4.0,8.0,82,0.00,,---,0.01,VWS V14.00,2013-09-16 14:25:00,
2013-09-16 10:30:00,60.5,55.0,30.07,NW,309,4.0,8.0,82,0.00,,---,0.01,VWS V14.00,2013-09-16 14:30:00,
2013-09-16 10:35:00,61.0,55.5,30.07,WNW,296,0.0,5.0,82,0.00,,---,0.01,VWS V14.00,2013-09-16 14:35:00,
2013-09-16 10:40:00,60.9,55.4,30.07,WNW,288,1.0,6.0,82,0.00,,---,0.01,VWS V14.00,2013-09-16 14:40:00,
2013-09-16 10:45:00,60.6,55.4,30.07,NW,310,4.0,6.0,83,0.00,,---,0.01,VWS V14.00,2013-09-16 14:45:00,
2013-09-16 10:50:00,60.5,55.0,30.07,NW,309,6.0,7.0,82,0.00,,---,0.01,VWS V14.00,2013-09-16 14:50:00,
2013-09-16 10:55:00,60.9,55.7,30.07,NW,313,4.0,7.0,83,0.00,,---,0.01,VWS V14.00,2013-09-16 14:55:00,
2013-09-16 11:00:00,61.9,56.0,30.07,NW,318,3.0,7.0,81,0.00,,---,0.01,VWS V14.00,2013-09-16 15:00:00,
2013-09-16 11:05:00,61.9,55.7,30.08,NNW,342,6.0,11.0,80,0.00,,---,0.01,VWS V14.00,2013-09-16 15:05:00,
2013-09-16 11:10:00,61.2,55.3,30.08,NNW,329,5.0,11.0,81,0.00,,---,0.01,VWS V14.00,2013-09-16 15:10:00,
2013-09-16 11:15:00,61.3,55.8,30.08,NNW,328,4.0,11.0,82,0.00,,---,0.01,VWS V14.00,2013-09-16 15:15:00,
2013-09-16 11:20:00,61.2,55.3,30.08,NNW,327,8.0,10.0,81,0.00,,---,0.01,VWS V14.00,2013-09-16 15:20:00,
2013-09-16 11:25:00,61.1,55.6,30.08,NW,311,4.0,14.0,82,0.00,,---,0.01,VWS V14.00,2013-09-16 15:25:00,
2013-09-16 11:30:00,61.0,55.8,30.08,WNW,296,4.0,14.0,83,0.00,,---,0.01,VWS V14.00,2013-09-16 15:30:00,
2013-09-16 11:35:00,60.7,55.5,30.08,NW,311,3.0,9.0,83,0.00,,---,0.01,VWS V14.00,2013-09-16 15:35:00,
2013-09-16 11:40:00,60.4,55.5,30.09,North,355,4.0,9.0,84,0.00,,---,0.01,VWS V14.00,2013-09-16 15:40:00,
2013-09-16 11:45:00,60.5,55.7,30.09,NE,40,5.0,9.0,84,0.00,,---,0.01,VWS V14.00,2013-09-16 15:45:00,
2013-09-16 11:50:00,60.7,55.8,30.09,North,355,2.0,7.0,84,0.00,,---,0.01,VWS V14.00,2013-09-16 15:50:00,
2013-09-16 11:55:00,61.2,56.0,30.09,NNE,12,4.0,7.0,83,0.00,,---,0.01,VWS V14.00,2013-09-16 15:55:00,
2013-09-16 12:00:00,61.6,55.7,30.09,NW,314,4.0,8.0,81,0.00,,---,0.01,VWS V14.00,2013-09-16 16:00:00,
2013-09-16 12:05:00,61.9,56.0,30.08,North,350,8.0,8.0,81,0.00,,---,0.01,VWS V14.00,2013-09-16 16:05:00,
2013-09-16 12:10:00,62.2,56.0,30.09,NW,314,5.0,8.0,80,0.00,,---,0.01,VWS V14.00,2013-09-16 16:10:00,
2013-09-16 12:15:00,63.2,56.6,30.09,NE,55,6.0,8.0,79,0.00,,---,0.01,VWS V14.00,2013-09-16 16:15:00,
2013-09-16 12:20:00,63.7,56.0,30.09,NNE,17,9.0,10.0,76,0.00,,---,0.01,VWS V14.00,2013-09-16 16:20:00,
2013-09-16 12:25:00,63.4,55.7,30.09,NNE,32,6.0,10.0,76,0.00,,---,0.01,VWS V14.00,2013-09-16 16:25:00,
2013-09-16 12:30:00,63.6,56.6,30.09,North,355,4.0,10.0,78,0.00,,---,0.01,VWS V14.00,2013-09-16 16:30:00,
2013-09-16 12:35:00,64.1,56.4,30.09,ENE,58,6.0,9.0,76,0.00,,---,0.01,VWS V14.00,2013-09-16 16:35:00,
2013-09-16 12:40:00,64.4,55.6,30.09,NNW,340,8.0,10.0,73,0.00,,---,0.01,VWS V14.00,2013-09-16 16:40:00,
2013-09-16 12:45:00,63.5,55.1,30.09,North,360,8.0,11.0,74,0.00,,---,0.01,VWS V14.00,2013-09-16 16:45:00,
2013-09-16 12:50:00,62.8,55.1,30.09,North,350,6.0,7.0,76,0.00,,---,0.01,VWS V14.00,2013-09-16 16:50:00,
2013-09-16 12:55:00,62.7,55.4,30.09,NNW,342,4.0,8.0,77,0.00,,---,0.01,VWS V14.00,2013-09-16 16:55:00,
2013-09-16 13:00:00,63.1,55.4,30.09,NW,321,4.0,11.0,76,0.00,,---,0.01,VWS V14.00,2013-09-16 17:00:00,
2013-09-16 13:05:00,62.5,54.8,30.09,NNW,338,9.0,10.0,76,0.00,,---,0.01,VWS V14.00,2013-09-16 17:05:00,
2013-09-16 13:10:00,62.0,55.1,30.09,NNW,329,6.0,10.0,78,0.00,,---,0.01,VWS V14.00,2013-09-16 17:10:00,
2013-09-16 13:15:00,62.5,55.6,30.09,North,9,4.0,10.0,78,0.00,,---,0.01,VWS V14.00,2013-09-16 17:15:00,
2013-09-16 13:20:00,63.7,56.0,30.09,NNW,348,2.0,11.0,76,0.00,,---,0.01,VWS V14.00,2013-09-16 17:20:00,
2013-09-16 13:25:00,64.1,55.7,30.09,WNW,294,3.0,11.0,74,0.00,,---,0.01,VWS V14.00,2013-09-16 17:25:00,
2013-09-16 13:30:00,64.7,56.2,30.09,WNW,301,6.0,11.0,74,0.00,,---,0.01,VWS V14.00,2013-09-16 17:30:00,
2013-09-16 13:35:00,64.3,55.5,30.09,North,5,13.0,13.0,73,0.00,,---,0.01,VWS V14.00,2013-09-16 17:35:00,
2013-09-16 13:40:00,64.1,56.8,30.09,NNE,25,10.0,13.0,77,0.00,,---,0.01,VWS V14.00,2013-09-16 17:40:00,
2013-09-16 13:45:00,63.6,56.3,30.10,North,10,8.0,13.0,77,0.00,,---,0.01,VWS V14.00,2013-09-16 17:45:00,
2013-09-16 13:50:00,63.0,55.7,30.10,North,5,9.0,10.0,77,0.00,,---,0.01,VWS V14.00,2013-09-16 17:50:00,
2013-09-16 13:55:00,62.5,55.6,30.10,NNE,17,9.0,11.0,78,0.00,,---,0.01,VWS V14.00,2013-09-16 17:55:00,
2013-09-16 14:00:00,61.9,55.0,30.10,NNW,329,0.0,11.0,78,0.00,,---,0.01,VWS V14.00,2013-09-16 18:00:00,
2013-09-16 14:05:00,62.7,55.8,30.10,North,355,6.0,9.0,78,0.00,,---,0.01,VWS V14.00,2013-09-16 18:05:00,
2013-09-16 14:10:00,63.1,55.4,30.10,NE,40,4.0,9.0,76,0.00,,---,0.01,VWS V14.00,2013-09-16 18:10:00,
2013-09-16 14:15:00,63.0,55.3,30.10,North,360,1.0,14.0,76,0.00,,---,0.01,VWS V14.00,2013-09-16 18:15:00,
2013-09-16 14:20:00,62.3,55.4,30.10,NNE,24,3.0,10.0,78,0.00,,---,0.01,VWS V14.00,2013-09-16 18:20:00,
2013-09-16 14:25:00,62.5,55.6,30.11,North,5,4.0,13.0,78,0.00,,---,0.01,VWS V14.00,2013-09-16 18:25:00,
2013-09-16 14:30:00,62.3,55.7,30.11,NNE,30,3.0,13.0,79,0.00,,---,0.01,VWS V14.00,2013-09-16 18:30:00,
2013-09-16 14:35:00,63.3,55.2,30.11,NW,321,6.0,10.0,75,0.00,,---,0.01,VWS V14.00,2013-09-16 18:35:00,
2013-09-16 14:40:00,62.4,54.8,30.11,NNW,341,7.0,14.0,76,0.00,,---,0.01,VWS V14.00,2013-09-16 18:40:00,
2013-09-16 14:45:00,61.3,54.7,30.11,North,350,6.0,14.0,79,0.00,,---,0.01,VWS V14.00,2013-09-16 18:45:00,
2013-09-16 14:50:00,60.7,54.8,30.11,North,355,9.0,18.0,81,0.00,,---,0.01,VWS V14.00,2013-09-16 18:50:00,
2013-09-16 14:55:00,60.8,54.6,30.11,NE,34,14.0,18.0,80,0.00,,---,0.01,VWS V14.00,2013-09-16 18:55:00,
2013-09-16 15:00:00,60.8,54.6,30.11,NNE,15,6.0,18.0,80,0.00,,---,0.01,VWS V14.00,2013-09-16 19:00:00,
2013-09-16 15:05:00,60.9,55.0,30.12,North,5,6.0,10.0,81,0.00,,---,0.01,VWS V14.00,2013-09-16 19:05:00,
2013-09-16 15:10:00,60.8,54.6,30.11,NNW,348,7.0,12.0,80,0.00,,---,0.01,VWS V14.00,2013-09-16 19:10:00,
2013-09-16 15:15:00,60.2,54.7,30.12,NNE,29,6.0,12.0,82,0.00,,---,0.01,VWS V14.00,2013-09-16 19:15:00,
2013-09-16 15:20:00,60.8,54.3,30.12,NNE,31,3.0,11.0,79,0.00,,---,0.01,VWS V14.00,2013-09-16 19:20:00,
2013-09-16 15:25:00,60.9,54.0,30.12,NNE,32,10.0,12.0,78,0.00,,---,0.01,VWS V14.00,2013-09-16 19:25:00,
2013-09-16 15:30:00,61.5,54.2,30.11,North,355,7.0,14.0,77,0.00,,---,0.01,VWS V14.00,2013-09-16 19:30:00,
2013-09-16 15:35:00,62.1,54.8,30.11,NNW,330,6.0,11.0,77,0.00,,---,0.01,VWS V14.00,2013-09-16 19:35:00,
2013-09-16 15:40:00,61.9,54.6,30.12,ESE,117,6.0,11.0,77,0.00,,---,0.01,VWS V14.00,2013-09-16 19:40:00,
2013-09-16 15:45:00,60.8,53.5,30.12,NE,50,7.0,11.0,77,0.00,,---,0.01,VWS V14.00,2013-09-16 19:45:00,
2013-09-16 15:50:00,59.7,53.2,30.12,North,355,2.0,10.0,79,0.00,,---,0.01,VWS V14.00,2013-09-16 19:50:00,
2013-09-16 15:55:00,59.2,53.0,30.12,NNW,342,2.0,13.0,80,0.00,,---,0.01,VWS V14.00,2013-09-16 19:55:00,
2013-09-16 16:00:00,59.4,53.6,30.12,North,355,9.0,13.0,81,0.00,,---,0.01,VWS V14.00,2013-09-16 20:00:00,
2013-09-16 16:05:00,58.7,53.2,30.12,North,355,6.0,9.0,82,0.00,,---,0.01,VWS V14.00,2013-09-16 20:05:00,
2013-09-16 16:10:00,58.2,52.7,30.12,NW,326,7.0,12.0,82,0.00,,---,0.01,VWS V14.00,2013-09-16 20:10:00,
2013-09-16 16:15:00,58.6,53.5,30.12,North,355,8.0,12.0,83,0.00,,---,0.01,VWS V14.00,2013-09-16 20:15:00,
2013-09-16 16:20:00,59.3,53.5,30.12,NW,320,4.0,12.0,81,0.00,,---,0.01,VWS V14.00,2013-09-16 20:20:00,
2013-09-16 16:25:00,59.3,53.1,30.12,North,355,8.0,12.0,80,0.00,,---,0.01,VWS V14.00,2013-09-16 20:25:00,
2013-09-16 16:30:00,58.7,53.2,30.12,NNE,13,6.0,12.0,82,0.00,,---,0.01,VWS V14.00,2013-09-16 20:30:00,
2013-09-16 16:35:00,58.4,52.9,30.12,NE,44,7.0,11.0,82,0.00,,---,0.01,VWS V14.00,2013-09-16 20:35:00,
2013-09-16 16:40:00,58.8,53.3,30.13,NW,315,7.0,11.0,82,0.00,,---,0.01,VWS V14.00,2013-09-16 20:40:00,
2013-09-16 16:45:00,58.8,53.0,30.12,NNW,346,8.0,11.0,81,0.00,,---,0.01,VWS V14.00,2013-09-16 20:45:00,
2013-09-16 16:50:00,59.0,52.8,30.13,North,360,7.0,9.0,80,0.00,,---,0.01,VWS V14.00,2013-09-16 20:50:00,
2013-09-16 16:55:00,59.1,53.3,30.13,North,360,5.0,10.0,81,0.00,,---,0.01,VWS V14.00,2013-09-16 20:55:00,
2013-09-16 17:00:00,59.1,53.3,30.13,NNE,29,4.0,10.0,81,0.00,,---,0.01,VWS V14.00,2013-09-16 21:00:00,
2013-09-16 17:05:00,58.2,52.7,30.13,North,5,0.0,8.0,82,0.00,,---,0.01,VWS V14.00,2013-09-16 21:05:00,
2013-09-16 17:10:00,57.7,52.2,30.13,NE,49,4.0,9.0,82,0.00,,---,0.01,VWS V14.00,2013-09-16 21:10:00,
2013-09-16 17:15:00,57.3,52.5,30.14,ENE,78,2.0,9.0,84,0.00,,---,0.01,VWS V14.00,2013-09-16 21:15:00,
2013-09-16 17:20:00,57.2,52.4,30.14,ESE,103,4.0,7.0,84,0.00,,---,0.01,VWS V14.00,2013-09-16 21:20:00,
2013-09-16 17:25:00,57.0,52.2,30.13,ENE,74,5.0,8.0,84,0.00,,---,0.01,VWS V14.00,2013-09-16 21:25:00,
2013-09-16 17:30:00,56.5,51.7,30.14,NE,51,4.0,10.0,84,0.00,,---,0.01,VWS V14.00,2013-09-16 21:30:00,
2013-09-16 17:35:00,56.3,51.9,30.14,ENE,71,3.0,10.0,85,0.00,,---,0.01,VWS V14.00,2013-09-16 21:35:00,
2013-09-16 17:40:00,56.1,51.7,30.14,NE,39,7.0,10.0,85,0.00,,---,0.01,VWS V14.00,2013-09-16 21:40:00,
2013-09-16 17:45:00,56.1,51.7,30.14,NE,42,6.0,10.0,85,0.00,,---,0.01,VWS V14.00,2013-09-16 21:45:00,
2013-09-16 17:50:00,56.0,51.6,30.14,NE,55,0.0,7.0,85,0.00,,---,0.01,VWS V14.00,2013-09-16 21:50:00,
2013-09-16 17:55:00,56.3,52.2,30.14,North,355,4.0,7.0,86,0.00,,---,0.01,VWS V14.00,2013-09-16 21:55:00,
2013-09-16 18:00:00,56.8,52.3,30.15,NNW,342,0.0,7.0,85,0.00,,---,0.01,VWS V14.00,2013-09-16 22:00:00,
2013-09-16 18:05:00,57.1,52.6,30.15,NE,37,1.0,6.0,85,0.00,,---,0.01,VWS V14.00,2013-09-16 22:05:00,
2013-09-16 18:10:00,57.1,52.0,30.15,NE,49,2.0,8.0,83,0.00,,---,0.01,VWS V14.00,2013-09-16 22:10:00,
2013-09-16 18:15:00,56.2,51.4,30.15,NE,55,1.0,8.0,84,0.00,,---,0.01,VWS V14.00,2013-09-16 22:15:00,
2013-09-16 18:20:00,55.5,51.1,30.15,ENE,70,3.0,8.0,85,0.00,,---,0.01,VWS V14.00,2013-09-16 22:20:00,
2013-09-16 18:25:00,55.1,51.0,30.15,ENE,66,0.0,8.0,86,0.00,,---,0.01,VWS V14.00,2013-09-16 22:25:00,
2013-09-16 18:30:00,55.0,50.9,30.15,NNE,17,2.0,8.0,86,0.00,,---,0.01,VWS V14.00,2013-09-16 22:30:00,
2013-09-16 18:35:00,55.0,50.9,30.15,NE,53,5.0,6.0,86,0.00,,---,0.01,VWS V14.00,2013-09-16 22:35:00,
2013-09-16 18:40:00,54.8,50.7,30.16,ENE,78,0.0,6.0,86,0.00,,---,0.01,VWS V14.00,2013-09-16 22:40:00,
2013-09-16 18:45:00,54.6,50.8,30.16,NE,48,0.0,6.0,87,0.00,,---,0.01,VWS V14.00,2013-09-16 22:45:00,
2013-09-16 18:50:00,54.3,50.5,30.16,ENE,71,4.0,5.0,87,0.00,,---,0.01,VWS V14.00,2013-09-16 22:50:00,
2013-09-16 18:55:00,54.1,50.3,30.16,NE,45,0.0,8.0,87,0.00,,---,0.01,VWS V14.00,2013-09-16 22:55:00,
2013-09-16 19:00:00,54.1,50.6,30.16,ENE,63,4.0,8.0,88,0.00,,---,0.01,VWS V14.00,2013-09-16 23:00:00,
2013-09-16 19:05:00,54.0,50.2,30.16,ENE,61,3.0,5.0,87,0.00,,---,0.01,VWS V14.00,2013-09-16 23:05:00,
2013-09-16 19:10:00,54.1,50.6,30.16,East,98,2.0,7.0,88,0.00,,---,0.01,VWS V14.00,2013-09-16 23:10:00,
2013-09-16 19:15:00,54.2,50.4,30.17,NE,55,7.0,7.0,87,0.00,,---,0.01,VWS V14.00,2013-09-16 23:15:00,
2013-09-16 19:20:00,54.1,50.3,30.17,NNE,18,5.0,8.0,87,0.00,,---,0.01,VWS V14.00,2013-09-16 23:20:00,
2013-09-16 19:25:00,53.9,50.4,30.17,East,84,5.0,8.0,88,0.00,,---,0.01,VWS V14.00,2013-09-16 23:25:00,
2013-09-16 19:30:00,53.7,50.2,30.16,ENE,65,0.0,8.0,88,0.00,,---,0.01,VWS V14.00,2013-09-16 23:30:00,
2013-09-16 19:35:00,53.3,50.2,30.17,ENE,57,2.0,6.0,89,0.00,,---,0.01,VWS V14.00,2013-09-16 23:35:00,
2013-09-16 19:40:00,53.0,49.8,30.17,East,94,0.0,6.0,89,0.00,,---,0.01,VWS V14.00,2013-09-16 23:40:00,
2013-09-16 19:45:00,52.8,49.7,30.17,NE,53,0.0,6.0,89,0.00,,---,0.01,VWS V14.00,2013-09-16 23:45:00,
2013-09-16 19:50:00,52.5,49.4,30.17,ENE,74,0.0,4.0,89,0.00,,---,0.01,VWS V14.00,2013-09-16 23:50:00,
2013-09-16 19:55:00,52.2,49.4,30.17,East,84,0.0,4.0,90,0.00,,---,0.01,VWS V14.00,2013-09-16 23:55:00,
2013-09-16 20:00:00,52.1,49.3,30.17,ENE,62,0.0,6.0,90,0.00,,---,0.01,VWS V14.00,2013-09-17 00:00:00,
2013-09-16 20:05:00,51.8,49.0,30.17,NE,53,0.0,4.0,90,0.00,,---,0.01,VWS V14.00,2013-09-17 00:05:00,
2013-09-16 20:10:00,51.6,48.8,30.17,East,82,2.0,5.0,90,0.00,,---,0.01,VWS V14.00,2013-09-17 00:10:00,
2013-09-16 20:15:00,51.4,48.9,30.17,NE,34,0.0,5.0,91,0.00,,---,0.01,VWS V14.00,2013-09-17 00:15:00,
2013-09-16 20:20:00,51.2,48.7,30.17,ENE,68,0.0,1.0,91,0.00,,---,0.01,VWS V14.00,2013-09-17 00:20:00,
2013-09-16 20:25:00,51.1,48.6,30.17,NE,44,0.0,4.0,91,0.00,,---,0.01,VWS V14.00,2013-09-17 00:25:00,
2013-09-16 20:30:00,51.0,48.5,30.18,NE,49,0.0,4.0,91,0.00,,---,0.01,VWS V14.00,2013-09-17 00:30:00,
2013-09-16 20:35:00,50.8,48.3,30.18,NE,48,0.0,0.0,91,0.00,,---,0.01,VWS V14.00,2013-09-17 00:35:00,
2013-09-16 20:40:00,50.6,48.1,30.18,NE,48,0.0,2.0,91,0.00,,---,0.01,VWS V14.00,2013-09-17 00:40:00,
2013-09-16 20:45:00,50.5,48.3,30.18,ENE,78,0.0,2.0,92,0.00,,---,0.01,VWS V14.00,2013-09-17 00:45:00,
2013-09-16 20:50:00,50.3,48.1,30.19,NE,51,0.0,1.0,92,0.00,,---,0.01,VWS V14.00,2013-09-17 00:50:00,
2013-09-16 20:55:00,50.1,47.9,30.19,NE,56,0.0,1.0,92,0.00,,---,0.01,VWS V14.00,2013-09-17 00:55:00,
2013-09-16 21:00:00,49.9,47.7,30.19,NE,50,0.0,3.0,92,0.00,,---,0.01,VWS V14.00,2013-09-17 01:00:00,
2013-09-16 21:05:00,49.7,47.5,30.19,NE,45,0.0,1.0,92,0.00,,---,0.01,VWS V14.00,2013-09-17 01:05:00,
2013-09-16 21:10:00,49.6,47.4,30.19,NE,50,0.0,2.0,92,0.00,,---,0.01,VWS V14.00,2013-09-17 01:10:00,
2013-09-16 21:15:00,49.4,47.5,30.19,NE,36,0.0,4.0,93,0.00,,---,0.01,VWS V14.00,2013-09-17 01:15:00,
2013-09-16 21:20:00,49.3,47.4,30.20,NE,38,0.0,3.0,93,0.00,,---,0.01,VWS V14.00,2013-09-17 01:20:00,
2013-09-16 21:25:00,49.2,47.3,30.20,ENE,67,1.0,3.0,93,0.00,,---,0.01,VWS V14.00,2013-09-17 01:25:00,
2013-09-16 21:30:00,49.1,47.2,30.20,ENE,57,0.0,3.0,93,0.00,,---,0.01,VWS V14.00,2013-09-17 01:30:00,
2013-09-16 21:35:00,49.0,47.1,30.21,NE,36,0.0,0.0,93,0.00,,---,0.01,VWS V14.00,2013-09-17 01:35:00,
2013-09-16 21:40:00,48.9,47.0,30.20,NE,36,0.0,1.0,93,0.00,,---,0.01,VWS V14.00,2013-09-17 01:40:00,
2013-09-16 21:45:00,48.7,46.8,30.21,ENE,74,0.0,2.0,93,0.00,,---,0.01,VWS V14.00,2013-09-17 01:45:00,
2013-09-16 21:50:00,48.6,46.7,30.21,ENE,74,0.0,0.0,93,0.00,,---,0.01,VWS V14.00,2013-09-17 01:50:00,
2013-09-16 21:55:00,48.5,46.6,30.21,ENE,74,0.0,0.0,93,0.00,,---,0.01,VWS V14.00,2013-09-17 01:55:00,
2013-09-16 22:00:00,48.3,46.4,30.21,ENE,74,0.0,0.0,93,0.00,,---,0.01,VWS V14.00,2013-09-17 02:00:00,
2013-09-16 22:05:00,48.1,46.2,30.21,ENE,74,0.0,0.0,93,0.00,,---,0.01,VWS V14.00,2013-09-17 02:05:00,
2013-09-16 22:10:00,47.9,46.0,30.21,ENE,64,0.0,3.0,93,0.00,,---,0.01,VWS V14.00,2013-09-17 02:10:00,
2013-09-16 22:15:00,47.8,46.2,30.20,ENE,69,0.0,3.0,94,0.00,,---,0.01,VWS V14.00,2013-09-17 02:15:00,
2013-09-16 22:20:00,47.8,46.2,30.20,ENE,65,0.0,1.0,94,0.00,,---,0.01,VWS V14.00,2013-09-17 02:20:00,
2013-09-16 22:25:00,47.7,46.1,30.21,East,90,0.0,2.0,94,0.00,,---,0.01,VWS V14.00,2013-09-17 02:25:00,
2013-09-16 22:30:00,47.6,46.0,30.21,East,90,0.0,2.0,94,0.00,,---,0.01,VWS V14.00,2013-09-17 02:30:00,
2013-09-16 22:35:00,47.5,45.9,30.21,East,90,0.0,0.0,94,0.00,,---,0.01,VWS V14.00,2013-09-17 02:35:00,
2013-09-16 22:40:00,47.3,45.7,30.21,East,90,0.0,0.0,94,0.00,,---,0.01,VWS V14.00,2013-09-17 02:40:00,
2013-09-16 22:45:00,47.2,45.6,30.21,East,90,0.0,1.0,94,0.00,,---,0.01,VWS V14.00,2013-09-17 02:45:00,
2013-09-16 22:50:00,47.1,45.5,30.21,East,90,0.0,1.0,94,0.00,,---,0.01,VWS V14.00,2013-09-17 02:50:00,
2013-09-16 22:55:00,47.0,45.4,30.21,ENE,63,0.0,1.0,94,0.00,,---,0.01,VWS V14.00,2013-09-17 02:55:00,
2013-09-16 23:00:00,46.9,45.3,30.21,ENE,63,0.0,1.0,94,0.00,,---,0.01,VWS V14.00,2013-09-17 03:00:00,
2013-09-16 23:05:00,46.8,45.2,30.21,East,84,0.0,2.0,94,0.00,,---,0.01,VWS V14.00,2013-09-17 03:05:00,
2013-09-16 23:10:00,46.8,45.2,30.22,ENE,64,0.0,3.0,94,0.00,,---,0.01,VWS V14.00,2013-09-17 03:10:00,
2013-09-16 23:15:00,46.7,45.1,30.22,East,80,1.0,3.0,94,0.00,,---,0.01,VWS V14.00,2013-09-17 03:15:00,
2013-09-16 23:20:00,46.6,45.0,30.22,East,80,0.0,1.0,94,0.00,,---,0.01,VWS V14.00,2013-09-17 03:20:00,
2013-09-16 23:25:00,46.5,44.9,30.22,East,80,0.0,1.0,94,0.00,,---,0.01,VWS V14.00,2013-09-17 03:25:00,
2013-09-16 23:30:00,46.5,44.9,30.22,NE,51,0.0,3.0,94,0.00,,---,0.01,VWS V14.00,2013-09-17 03:30:00,
2013-09-16 23:35:00,46.3,44.7,30.22,ENE,77,0.0,3.0,94,0.00,,---,0.01,VWS V14.00,2013-09-17 03:35:00,
2013-09-16 23:40:00,46.2,44.6,30.22,ENE,75,0.0,3.0,94,0.00,,---,0.01,VWS V14.00,2013-09-17 03:40:00,
2013-09-16 23:45:00,46.1,44.5,30.22,East,96,0.0,6.0,94,0.00,,---,0.01,VWS V14.00,2013-09-17 03:45:00,
2013-09-16 23:50:00,46.1,44.5,30.22,East,80,1.0,4.0,94,0.00,,---,0.01,VWS V14.00,2013-09-17 03:50:00,
2013-09-16 23:55:00,46.0,44.4,30.22,East,83,0.0,4.0,94,0.00,,---,0.01,VWS V14.00,2013-09-17 03:55:00,